sensor_id;sensor_type;location;lat;lon;timestamp;P1;durP1;ratioP1;P2;durP2;ratioP2
20142;SDS011;10509;46.476;7.134;2022-12-26T00:00:24;4.40;;;4.00;;
20142;SDS011;10509;46.476;7.134;2022-12-26T00:02:50;4.03;;;3.63;;
20142;SDS011;10509;46.476;7.134;2022-12-26T00:05:16;4.37;;;4.07;;
20142;SDS011;10509;46.476;7.134;2022-12-26T00:07:42;4.07;;;3.67;;
20142;SDS011;10509;46.476;7.134;2022-12-26T00:10:08;4.27;;;3.77;;
20142;SDS011;10509;46.476;7.134;2022-12-26T00:12:34;4.17;;;3.87;;
20142;SDS011;10509;46.476;7.134;2022-12-26T00:15:00;4.90;;;4.50;;
20142;SDS011;10509;46.476;7.134;2022-12-26T00:17:26;5.20;;;4.77;;
20142;SDS011;10509;46.476;7.134;2022-12-26T00:19:52;4.00;;;3.70;;
20142;SDS011;10509;46.476;7.134;2022-12-26T00:22:18;3.80;;;3.50;;
20142;SDS011;10509;46.476;7.134;2022-12-26T00:24:44;3.50;;;3.20;;
20142;SDS011;10509;46.476;7.134;2022-12-26T00:27:12;3.63;;;3.33;;
20142;SDS011;10509;46.476;7.134;2022-12-26T00:29:37;3.20;;;2.90;;
20142;SDS011;10509;46.476;7.134;2022-12-26T00:32:04;6.17;;;5.57;;
20142;SDS011;10509;46.476;7.134;2022-12-26T00:34:30;3.50;;;2.83;;
20142;SDS011;10509;46.476;7.134;2022-12-26T00:36:56;2.90;;;2.70;;
20142;SDS011;10509;46.476;7.134;2022-12-26T00:39:22;4.00;;;3.70;;
20142;SDS011;10509;46.476;7.134;2022-12-26T00:41:48;3.80;;;3.43;;
20142;SDS011;10509;46.476;7.134;2022-12-26T00:44:14;3.57;;;3.27;;
20142;SDS011;10509;46.476;7.134;2022-12-26T00:46:40;3.67;;;2.63;;
20142;SDS011;10509;46.476;7.134;2022-12-26T00:49:06;3.17;;;2.97;;
20142;SDS011;10509;46.476;7.134;2022-12-26T00:51:32;3.23;;;2.93;;
20142;SDS011;10509;46.476;7.134;2022-12-26T00:53:58;3.20;;;2.90;;
20142;SDS011;10509;46.476;7.134;2022-12-26T00:56:24;4.00;;;3.60;;
20142;SDS011;10509;46.476;7.134;2022-12-26T00:58:50;3.90;;;3.50;;
20142;SDS011;10509;46.476;7.134;2022-12-26T01:01:18;3.37;;;3.07;;
20142;SDS011;10509;46.476;7.134;2022-12-26T01:03:45;3.40;;;3.10;;
20142;SDS011;10509;46.476;7.134;2022-12-26T01:06:11;3.37;;;3.13;;
20142;SDS011;10509;46.476;7.134;2022-12-26T01:08:37;2.80;;;2.60;;
20142;SDS011;10509;46.476;7.134;2022-12-26T01:11:04;3.20;;;2.90;;
20142;SDS011;10509;46.476;7.134;2022-12-26T01:13:31;3.50;;;2.80;;
20142;SDS011;10509;46.476;7.134;2022-12-26T01:15:57;2.80;;;2.43;;
20142;SDS011;10509;46.476;7.134;2022-12-26T01:18:23;2.47;;;2.27;;
20142;SDS011;10509;46.476;7.134;2022-12-26T01:20:49;3.63;;;2.67;;
20142;SDS011;10509;46.476;7.134;2022-12-26T01:23:15;2.53;;;2.33;;
20142;SDS011;10509;46.476;7.134;2022-12-26T01:25:41;2.23;;;2.00;;
20142;SDS011;10509;46.476;7.134;2022-12-26T01:28:08;2.47;;;2.27;;
20142;SDS011;10509;46.476;7.134;2022-12-26T01:30:34;2.73;;;2.30;;
20142;SDS011;10509;46.476;7.134;2022-12-26T01:33:00;2.60;;;2.40;;
20142;SDS011;10509;46.476;7.134;2022-12-26T01:35:26;2.50;;;2.30;;
20142;SDS011;10509;46.476;7.134;2022-12-26T01:37:52;3.80;;;2.37;;
20142;SDS011;10509;46.476;7.134;2022-12-26T01:40:18;2.30;;;2.10;;
20142;SDS011;10509;46.476;7.134;2022-12-26T01:42:44;3.87;;;2.17;;
20142;SDS011;10509;46.476;7.134;2022-12-26T01:45:20;3.27;;;2.37;;
20142;SDS011;10509;46.476;7.134;2022-12-26T01:50:23;3.23;;;2.97;;
20142;SDS011;10509;46.476;7.134;2022-12-26T01:52:50;2.77;;;2.57;;
20142;SDS011;10509;46.476;7.134;2022-12-26T01:55:17;2.30;;;1.90;;
20142;SDS011;10509;46.476;7.134;2022-12-26T01:57:44;2.90;;;1.87;;
20142;SDS011;10509;46.476;7.134;2022-12-26T02:00:11;2.03;;;1.87;;
20142;SDS011;10509;46.476;7.134;2022-12-26T02:02:38;2.30;;;2.07;;
20142;SDS011;10509;46.476;7.134;2022-12-26T02:05:23;1.93;;;1.83;;
20142;SDS011;10509;46.476;7.134;2022-12-26T02:08:07;1.87;;;1.77;;
20142;SDS011;10509;46.476;7.134;2022-12-26T02:10:35;2.23;;;2.03;;
20142;SDS011;10509;46.476;7.134;2022-12-26T02:13:03;2.00;;;1.80;;
20142;SDS011;10509;46.476;7.134;2022-12-26T02:15:30;2.20;;;1.97;;
20142;SDS011;10509;46.476;7.134;2022-12-26T02:17:56;2.53;;;2.33;;
20142;SDS011;10509;46.476;7.134;2022-12-26T02:20:24;1.93;;;1.83;;
20142;SDS011;10509;46.476;7.134;2022-12-26T02:47:05;2.50;;;2.30;;
20142;SDS011;10509;46.476;7.134;2022-12-26T02:49:43;2.73;;;2.10;;
20142;SDS011;10509;46.476;7.134;2022-12-26T02:55:26;2.57;;;2.33;;
20142;SDS011;10509;46.476;7.134;2022-12-26T02:58:19;2.30;;;2.10;;
20142;SDS011;10509;46.476;7.134;2022-12-26T03:01:10;1.80;;;1.70;;
20142;SDS011;10509;46.476;7.134;2022-12-26T03:03:59;1.87;;;1.77;;
20142;SDS011;10509;46.476;7.134;2022-12-26T03:06:53;1.83;;;1.70;;
20142;SDS011;10509;46.476;7.134;2022-12-26T03:09:40;1.80;;;1.70;;
20142;SDS011;10509;46.476;7.134;2022-12-26T03:12:38;2.23;;;1.73;;
20142;SDS011;10509;46.476;7.134;2022-12-26T03:15:23;2.23;;;1.60;;
20142;SDS011;10509;46.476;7.134;2022-12-26T03:17:53;2.47;;;1.60;;
20142;SDS011;10509;46.476;7.134;2022-12-26T03:20:21;1.53;;;1.30;;
20142;SDS011;10509;46.476;7.134;2022-12-26T03:22:53;1.97;;;1.87;;
20142;SDS011;10509;46.476;7.134;2022-12-26T03:28:13;1.80;;;1.50;;
20142;SDS011;10509;46.476;7.134;2022-12-26T03:30:39;2.63;;;1.60;;
20142;SDS011;10509;46.476;7.134;2022-12-26T03:35:59;1.60;;;1.40;;
20142;SDS011;10509;46.476;7.134;2022-12-26T03:38:32;1.50;;;1.40;;
20142;SDS011;10509;46.476;7.134;2022-12-26T03:41:02;1.83;;;1.37;;
20142;SDS011;10509;46.476;7.134;2022-12-26T03:43:55;1.90;;;1.50;;
20142;SDS011;10509;46.476;7.134;2022-12-26T03:49:27;1.40;;;1.30;;
20142;SDS011;10509;46.476;7.134;2022-12-26T03:55:40;1.97;;;1.13;;
20142;SDS011;10509;46.476;7.134;2022-12-26T03:58:23;1.80;;;1.37;;
20142;SDS011;10509;46.476;7.134;2022-12-26T04:01:11;1.60;;;1.40;;
20142;SDS011;10509;46.476;7.134;2022-12-26T04:03:57;1.53;;;1.27;;
20142;SDS011;10509;46.476;7.134;2022-12-26T04:06:54;1.40;;;1.10;;
20142;SDS011;10509;46.476;7.134;2022-12-26T04:09:52;1.40;;;1.20;;
20142;SDS011;10509;46.476;7.134;2022-12-26T04:12:39;1.60;;;1.30;;
20142;SDS011;10509;46.476;7.134;2022-12-26T04:18:19;2.47;;;1.60;;
20142;SDS011;10509;46.476;7.134;2022-12-26T04:21:11;1.40;;;1.30;;
20142;SDS011;10509;46.476;7.134;2022-12-26T04:24:00;1.10;;;1.00;;
20142;SDS011;10509;46.476;7.134;2022-12-26T04:26:46;2.17;;;1.00;;
20142;SDS011;10509;46.476;7.134;2022-12-26T04:29:33;1.30;;;1.10;;
20142;SDS011;10509;46.476;7.134;2022-12-26T04:35:12;1.23;;;1.03;;
20142;SDS011;10509;46.476;7.134;2022-12-26T04:37:57;1.93;;;1.40;;
20142;SDS011;10509;46.476;7.134;2022-12-26T04:40:43;2.70;;;1.57;;
20142;SDS011;10509;46.476;7.134;2022-12-26T04:43:28;1.60;;;1.20;;
20142;SDS011;10509;46.476;7.134;2022-12-26T04:46:13;2.10;;;1.20;;
20142;SDS011;10509;46.476;7.134;2022-12-26T04:48:41;1.73;;;1.37;;
20142;SDS011;10509;46.476;7.134;2022-12-26T04:51:27;1.43;;;1.33;;
20142;SDS011;10509;46.476;7.134;2022-12-26T04:53:53;2.23;;;1.30;;
20142;SDS011;10509;46.476;7.134;2022-12-26T04:56:19;1.33;;;1.23;;
20142;SDS011;10509;46.476;7.134;2022-12-26T04:58:45;1.40;;;1.23;;
20142;SDS011;10509;46.476;7.134;2022-12-26T05:01:11;1.53;;;1.30;;
20142;SDS011;10509;46.476;7.134;2022-12-26T05:03:55;1.63;;;1.20;;
20142;SDS011;10509;46.476;7.134;2022-12-26T05:06:40;1.37;;;1.27;;
20142;SDS011;10509;46.476;7.134;2022-12-26T05:09:25;1.57;;;1.23;;
20142;SDS011;10509;46.476;7.134;2022-12-26T05:12:01;1.20;;;1.10;;
20142;SDS011;10509;46.476;7.134;2022-12-26T05:14:27;1.57;;;1.07;;
20142;SDS011;10509;46.476;7.134;2022-12-26T05:16:55;1.77;;;0.90;;
20142;SDS011;10509;46.476;7.134;2022-12-26T05:19:40;1.23;;;0.97;;
20142;SDS011;10509;46.476;7.134;2022-12-26T05:22:24;1.47;;;1.23;;
20142;SDS011;10509;46.476;7.134;2022-12-26T05:25:29;1.57;;;1.20;;
20142;SDS011;10509;46.476;7.134;2022-12-26T05:28:15;1.30;;;1.20;;
20142;SDS011;10509;46.476;7.134;2022-12-26T05:31:01;1.30;;;1.10;;
20142;SDS011;10509;46.476;7.134;2022-12-26T05:33:27;1.27;;;1.10;;
20142;SDS011;10509;46.476;7.134;2022-12-26T05:36:12;1.70;;;1.23;;
20142;SDS011;10509;46.476;7.134;2022-12-26T05:38:38;2.63;;;2.43;;
20142;SDS011;10509;46.476;7.134;2022-12-26T05:41:04;1.60;;;1.20;;
20142;SDS011;10509;46.476;7.134;2022-12-26T05:43:30;1.73;;;1.00;;
20142;SDS011;10509;46.476;7.134;2022-12-26T05:45:56;1.17;;;1.03;;
20142;SDS011;10509;46.476;7.134;2022-12-26T05:48:22;1.13;;;1.00;;
20142;SDS011;10509;46.476;7.134;2022-12-26T05:50:48;2.23;;;0.93;;
20142;SDS011;10509;46.476;7.134;2022-12-26T05:53:14;2.07;;;1.20;;
20142;SDS011;10509;46.476;7.134;2022-12-26T05:55:40;1.50;;;0.90;;
20142;SDS011;10509;46.476;7.134;2022-12-26T05:58:06;1.93;;;1.40;;
20142;SDS011;10509;46.476;7.134;2022-12-26T06:00:32;2.73;;;1.30;;
20142;SDS011;10509;46.476;7.134;2022-12-26T06:02:59;1.70;;;1.37;;
20142;SDS011;10509;46.476;7.134;2022-12-26T06:05:26;1.77;;;1.30;;
20142;SDS011;10509;46.476;7.134;2022-12-26T06:07:52;1.83;;;1.70;;
20142;SDS011;10509;46.476;7.134;2022-12-26T06:10:18;2.03;;;1.67;;
20142;SDS011;10509;46.476;7.134;2022-12-26T06:12:44;2.20;;;1.30;;
20142;SDS011;10509;46.476;7.134;2022-12-26T06:15:10;1.80;;;1.50;;
20142;SDS011;10509;46.476;7.134;2022-12-26T06:17:36;1.73;;;1.60;;
20142;SDS011;10509;46.476;7.134;2022-12-26T06:20:03;2.23;;;1.93;;
20142;SDS011;10509;46.476;7.134;2022-12-26T06:22:29;3.10;;;1.50;;
20142;SDS011;10509;46.476;7.134;2022-12-26T06:24:55;2.00;;;1.47;;
20142;SDS011;10509;46.476;7.134;2022-12-26T06:27:21;2.30;;;1.80;;
20142;SDS011;10509;46.476;7.134;2022-12-26T06:29:47;1.80;;;1.70;;
20142;SDS011;10509;46.476;7.134;2022-12-26T06:32:13;3.67;;;2.20;;
20142;SDS011;10509;46.476;7.134;2022-12-26T06:34:39;14.07;;;11.03;;
20142;SDS011;10509;46.476;7.134;2022-12-26T06:37:05;16.87;;;13.77;;
20142;SDS011;10509;46.476;7.134;2022-12-26T06:39:31;7.10;;;6.10;;
20142;SDS011;10509;46.476;7.134;2022-12-26T06:41:57;2.60;;;2.40;;
20142;SDS011;10509;46.476;7.134;2022-12-26T06:44:23;4.50;;;4.20;;
20142;SDS011;10509;46.476;7.134;2022-12-26T06:46:49;3.57;;;3.37;;
20142;SDS011;10509;46.476;7.134;2022-12-26T06:49:15;3.73;;;3.50;;
20142;SDS011;10509;46.476;7.134;2022-12-26T06:51:41;3.50;;;3.20;;
20142;SDS011;10509;46.476;7.134;2022-12-26T06:54:09;2.33;;;2.00;;
20142;SDS011;10509;46.476;7.134;2022-12-26T06:56:35;2.23;;;2.03;;
20142;SDS011;10509;46.476;7.134;2022-12-26T06:59:02;3.40;;;3.10;;
20142;SDS011;10509;46.476;7.134;2022-12-26T07:01:29;4.23;;;1.80;;
20142;SDS011;10509;46.476;7.134;2022-12-26T07:03:55;2.23;;;1.80;;
20142;SDS011;10509;46.476;7.134;2022-12-26T07:08:48;2.93;;;2.63;;
20142;SDS011;10509;46.476;7.134;2022-12-26T07:11:15;2.23;;;2.03;;
20142;SDS011;10509;46.476;7.134;2022-12-26T07:13:41;2.27;;;2.00;;
20142;SDS011;10509;46.476;7.134;2022-12-26T07:16:08;2.30;;;2.10;;
20142;SDS011;10509;46.476;7.134;2022-12-26T07:18:34;2.73;;;2.30;;
20142;SDS011;10509;46.476;7.134;2022-12-26T07:21:04;3.03;;;2.77;;
20142;SDS011;10509;46.476;7.134;2022-12-26T07:23:30;3.33;;;2.87;;
20142;SDS011;10509;46.476;7.134;2022-12-26T07:25:56;3.07;;;2.50;;
20142;SDS011;10509;46.476;7.134;2022-12-26T07:28:22;2.77;;;2.47;;
20142;SDS011;10509;46.476;7.134;2022-12-26T07:30:48;3.37;;;3.07;;
20142;SDS011;10509;46.476;7.134;2022-12-26T07:33:15;2.97;;;2.67;;
20142;SDS011;10509;46.476;7.134;2022-12-26T07:35:41;3.97;;;2.40;;
20142;SDS011;10509;46.476;7.134;2022-12-26T07:38:08;3.20;;;2.87;;
20142;SDS011;10509;46.476;7.134;2022-12-26T07:40:34;5.03;;;2.63;;
20142;SDS011;10509;46.476;7.134;2022-12-26T07:43:00;2.57;;;2.37;;
20142;SDS011;10509;46.476;7.134;2022-12-26T07:45:26;3.03;;;2.40;;
20142;SDS011;10509;46.476;7.134;2022-12-26T07:47:52;2.40;;;2.20;;
20142;SDS011;10509;46.476;7.134;2022-12-26T07:50:19;2.30;;;1.87;;
20142;SDS011;10509;46.476;7.134;2022-12-26T07:52:45;3.17;;;2.50;;
20142;SDS011;10509;46.476;7.134;2022-12-26T07:55:11;2.50;;;2.20;;
20142;SDS011;10509;46.476;7.134;2022-12-26T07:57:37;2.63;;;2.40;;
20142;SDS011;10509;46.476;7.134;2022-12-26T08:00:03;4.10;;;3.80;;
20142;SDS011;10509;46.476;7.134;2022-12-26T08:02:29;4.03;;;3.70;;
20142;SDS011;10509;46.476;7.134;2022-12-26T08:04:55;2.40;;;1.87;;
20142;SDS011;10509;46.476;7.134;2022-12-26T08:07:21;2.97;;;2.27;;
20142;SDS011;10509;46.476;7.134;2022-12-26T08:09:47;5.90;;;5.30;;
20142;SDS011;10509;46.476;7.134;2022-12-26T08:12:13;3.80;;;3.50;;
20142;SDS011;10509;46.476;7.134;2022-12-26T08:14:40;5.07;;;4.63;;
20142;SDS011;10509;46.476;7.134;2022-12-26T08:17:06;5.07;;;4.40;;
20142;SDS011;10509;46.476;7.134;2022-12-26T08:19:32;7.90;;;7.23;;
20142;SDS011;10509;46.476;7.134;2022-12-26T08:21:58;4.10;;;3.80;;
20142;SDS011;10509;46.476;7.134;2022-12-26T08:24:24;3.40;;;3.10;;
20142;SDS011;10509;46.476;7.134;2022-12-26T08:26:50;4.10;;;3.80;;
20142;SDS011;10509;46.476;7.134;2022-12-26T08:29:16;16.30;;;15.03;;
20142;SDS011;10509;46.476;7.134;2022-12-26T08:31:42;5.27;;;4.87;;
20142;SDS011;10509;46.476;7.134;2022-12-26T08:34:08;3.70;;;3.40;;
20142;SDS011;10509;46.476;7.134;2022-12-26T08:36:34;3.63;;;2.93;;
20142;SDS011;10509;46.476;7.134;2022-12-26T08:39:00;4.73;;;4.33;;
20142;SDS011;10509;46.476;7.134;2022-12-26T08:41:26;6.63;;;6.00;;
20142;SDS011;10509;46.476;7.134;2022-12-26T08:43:52;5.93;;;5.50;;
20142;SDS011;10509;46.476;7.134;2022-12-26T08:46:19;5.13;;;4.73;;
20142;SDS011;10509;46.476;7.134;2022-12-26T08:48:46;6.80;;;6.10;;
20142;SDS011;10509;46.476;7.134;2022-12-26T08:51:13;5.60;;;5.20;;
20142;SDS011;10509;46.476;7.134;2022-12-26T08:53:39;4.97;;;4.47;;
20142;SDS011;10509;46.476;7.134;2022-12-26T08:56:06;2.87;;;2.40;;
20142;SDS011;10509;46.476;7.134;2022-12-26T08:58:33;2.97;;;2.13;;
20142;SDS011;10509;46.476;7.134;2022-12-26T09:01:09;2.30;;;2.10;;
20142;SDS011;10509;46.476;7.134;2022-12-26T09:03:36;4.10;;;3.13;;
20142;SDS011;10509;46.476;7.134;2022-12-26T09:06:02;2.77;;;2.57;;
20142;SDS011;10509;46.476;7.134;2022-12-26T09:08:29;3.50;;;3.20;;
20142;SDS011;10509;46.476;7.134;2022-12-26T09:10:58;3.63;;;2.80;;
20142;SDS011;10509;46.476;7.134;2022-12-26T09:13:26;4.00;;;3.30;;
20142;SDS011;10509;46.476;7.134;2022-12-26T09:15:52;3.00;;;2.80;;
20142;SDS011;10509;46.476;7.134;2022-12-26T09:18:18;2.90;;;2.70;;
20142;SDS011;10509;46.476;7.134;2022-12-26T09:20:44;3.90;;;3.13;;
20142;SDS011;10509;46.476;7.134;2022-12-26T09:23:10;7.43;;;3.20;;
20142;SDS011;10509;46.476;7.134;2022-12-26T09:25:36;4.13;;;3.77;;
20142;SDS011;10509;46.476;7.134;2022-12-26T09:28:02;4.43;;;4.13;;
20142;SDS011;10509;46.476;7.134;2022-12-26T09:30:28;5.50;;;5.10;;
20142;SDS011;10509;46.476;7.134;2022-12-26T09:32:54;6.23;;;5.73;;
20142;SDS011;10509;46.476;7.134;2022-12-26T09:35:20;6.00;;;5.60;;
20142;SDS011;10509;46.476;7.134;2022-12-26T09:37:46;7.40;;;6.90;;
20142;SDS011;10509;46.476;7.134;2022-12-26T09:40:22;8.37;;;7.80;;
20142;SDS011;10509;46.476;7.134;2022-12-26T09:45:16;11.13;;;10.33;;
20142;SDS011;10509;46.476;7.134;2022-12-26T09:50:32;6.83;;;6.33;;
20142;SDS011;10509;46.476;7.134;2022-12-26T09:53:01;4.83;;;4.53;;
20142;SDS011;10509;46.476;7.134;2022-12-26T09:55:29;4.77;;;4.37;;
20142;SDS011;10509;46.476;7.134;2022-12-26T09:58:03;4.60;;;4.20;;
20142;SDS011;10509;46.476;7.134;2022-12-26T10:00:33;5.07;;;4.57;;
20142;SDS011;10509;46.476;7.134;2022-12-26T10:03:01;5.90;;;5.50;;
20142;SDS011;10509;46.476;7.134;2022-12-26T10:05:32;3.97;;;3.67;;
20142;SDS011;10509;46.476;7.134;2022-12-26T10:08:02;7.57;;;5.43;;
20142;SDS011;10509;46.476;7.134;2022-12-26T10:10:39;6.97;;;5.33;;
20142;SDS011;10509;46.476;7.134;2022-12-26T10:13:12;5.47;;;5.07;;
20142;SDS011;10509;46.476;7.134;2022-12-26T10:15:41;7.00;;;6.40;;
20142;SDS011;10509;46.476;7.134;2022-12-26T10:18:17;4.63;;;4.23;;
20142;SDS011;10509;46.476;7.134;2022-12-26T10:23:30;5.40;;;5.00;;
20142;SDS011;10509;46.476;7.134;2022-12-26T10:28:46;6.50;;;6.00;;
20142;SDS011;10509;46.476;7.134;2022-12-26T10:31:30;4.77;;;4.37;;
20142;SDS011;10509;46.476;7.134;2022-12-26T10:34:19;5.83;;;5.33;;
20142;SDS011;10509;46.476;7.134;2022-12-26T10:36:50;6.03;;;5.53;;
20142;SDS011;10509;46.476;7.134;2022-12-26T10:39:20;8.10;;;7.50;;
20142;SDS011;10509;46.476;7.134;2022-12-26T10:41:49;5.00;;;4.60;;
20142;SDS011;10509;46.476;7.134;2022-12-26T10:44:17;3.70;;;3.13;;
20142;SDS011;10509;46.476;7.134;2022-12-26T10:46:55;6.27;;;5.30;;
20142;SDS011;10509;46.476;7.134;2022-12-26T10:49:24;4.23;;;3.93;;
20142;SDS011;10509;46.476;7.134;2022-12-26T10:51:51;2.67;;;2.37;;
20142;SDS011;10509;46.476;7.134;2022-12-26T10:54:18;3.10;;;2.80;;
20142;SDS011;10509;46.476;7.134;2022-12-26T10:56:47;4.30;;;3.90;;
20142;SDS011;10509;46.476;7.134;2022-12-26T10:59:15;5.03;;;3.50;;
20142;SDS011;10509;46.476;7.134;2022-12-26T11:01:41;4.33;;;3.93;;
20142;SDS011;10509;46.476;7.134;2022-12-26T11:06:40;3.63;;;3.20;;
20142;SDS011;10509;46.476;7.134;2022-12-26T11:09:21;2.30;;;2.10;;
20142;SDS011;10509;46.476;7.134;2022-12-26T11:11:48;5.17;;;4.67;;
20142;SDS011;10509;46.476;7.134;2022-12-26T11:14:28;2.80;;;2.40;;
20142;SDS011;10509;46.476;7.134;2022-12-26T11:16:56;4.67;;;2.70;;
20142;SDS011;10509;46.476;7.134;2022-12-26T11:19:27;3.23;;;2.93;;
20142;SDS011;10509;46.476;7.134;2022-12-26T11:21:53;4.37;;;3.97;;
20142;SDS011;10509;46.476;7.134;2022-12-26T11:24:19;4.87;;;4.47;;
20142;SDS011;10509;46.476;7.134;2022-12-26T11:26:45;3.47;;;3.17;;
20142;SDS011;10509;46.476;7.134;2022-12-26T11:29:13;3.87;;;3.57;;
20142;SDS011;10509;46.476;7.134;2022-12-26T11:31:39;4.13;;;2.50;;
20142;SDS011;10509;46.476;7.134;2022-12-26T11:34:10;2.37;;;2.17;;
20142;SDS011;10509;46.476;7.134;2022-12-26T11:36:38;2.93;;;2.63;;
20142;SDS011;10509;46.476;7.134;2022-12-26T11:39:22;4.67;;;2.23;;
20142;SDS011;10509;46.476;7.134;2022-12-26T11:41:49;3.23;;;2.93;;
20142;SDS011;10509;46.476;7.134;2022-12-26T11:46:53;2.77;;;2.20;;
20142;SDS011;10509;46.476;7.134;2022-12-26T11:49:33;3.17;;;2.63;;
20142;SDS011;10509;46.476;7.134;2022-12-26T11:52:00;5.03;;;4.63;;
20142;SDS011;10509;46.476;7.134;2022-12-26T11:54:32;1.67;;;1.10;;
20142;SDS011;10509;46.476;7.134;2022-12-26T11:57:10;1.53;;;1.00;;
20142;SDS011;10509;46.476;7.134;2022-12-26T11:59:36;3.47;;;3.10;;
20142;SDS011;10509;46.476;7.134;2022-12-26T12:04:44;2.20;;;1.10;;
20142;SDS011;10509;46.476;7.134;2022-12-26T12:07:15;1.83;;;1.33;;
20142;SDS011;10509;46.476;7.134;2022-12-26T12:09:58;2.00;;;1.10;;
20142;SDS011;10509;46.476;7.134;2022-12-26T12:30:23;2.63;;;2.43;;
20142;SDS011;10509;46.476;7.134;2022-12-26T13:01:34;9.60;;;5.03;;
20142;SDS011;10509;46.476;7.134;2022-12-26T13:06:41;3.57;;;1.70;;
20142;SDS011;10509;46.476;7.134;2022-12-26T13:09:13;2.27;;;1.30;;
20142;SDS011;10509;46.476;7.134;2022-12-26T13:11:43;1.80;;;1.30;;
20142;SDS011;10509;46.476;7.134;2022-12-26T13:16:40;1.63;;;1.03;;
20142;SDS011;10509;46.476;7.134;2022-12-26T13:19:11;1.23;;;0.90;;
20142;SDS011;10509;46.476;7.134;2022-12-26T13:21:39;1.03;;;0.83;;
20142;SDS011;10509;46.476;7.134;2022-12-26T13:24:11;1.73;;;1.20;;
20142;SDS011;10509;46.476;7.134;2022-12-26T13:26:52;2.53;;;2.10;;
20142;SDS011;10509;46.476;7.134;2022-12-26T13:29:24;2.27;;;1.40;;
20142;SDS011;10509;46.476;7.134;2022-12-26T13:31:54;2.50;;;1.37;;
20142;SDS011;10509;46.476;7.134;2022-12-26T13:34:20;1.70;;;1.10;;
20142;SDS011;10509;46.476;7.134;2022-12-26T13:36:53;1.83;;;1.43;;
20142;SDS011;10509;46.476;7.134;2022-12-26T13:41:49;2.73;;;2.17;;
20142;SDS011;10509;46.476;7.134;2022-12-26T13:44:35;3.47;;;2.37;;
20142;SDS011;10509;46.476;7.134;2022-12-26T13:47:01;1.30;;;0.97;;
20142;SDS011;10509;46.476;7.134;2022-12-26T13:49:34;1.43;;;1.00;;
20142;SDS011;10509;46.476;7.134;2022-12-26T14:13:00;1.47;;;1.00;;
20142;SDS011;10509;46.476;7.134;2022-12-26T14:15:37;1.30;;;0.90;;
20142;SDS011;10509;46.476;7.134;2022-12-26T14:20:56;1.30;;;1.00;;
20142;SDS011;10509;46.476;7.134;2022-12-26T14:33:30;2.43;;;2.23;;
20142;SDS011;10509;46.476;7.134;2022-12-26T14:39:03;2.33;;;2.07;;
20142;SDS011;10509;46.476;7.134;2022-12-26T14:44:40;1.80;;;1.00;;
20142;SDS011;10509;46.476;7.134;2022-12-26T14:47:08;1.43;;;1.00;;
20142;SDS011;10509;46.476;7.134;2022-12-26T14:49:35;4.07;;;2.40;;
20142;SDS011;10509;46.476;7.134;2022-12-26T14:52:47;4.60;;;3.30;;
20142;SDS011;10509;46.476;7.134;2022-12-26T14:54:48;3.07;;;2.27;;
20142;SDS011;10509;46.476;7.134;2022-12-26T15:00:11;2.97;;;2.20;;
20142;SDS011;10509;46.476;7.134;2022-12-26T15:02:37;3.17;;;2.87;;
20142;SDS011;10509;46.476;7.134;2022-12-26T15:05:18;1.93;;;1.73;;
20142;SDS011;10509;46.476;7.134;2022-12-26T15:10:27;4.93;;;4.53;;
20142;SDS011;10509;46.476;7.134;2022-12-26T15:13:07;4.00;;;3.70;;
20142;SDS011;10509;46.476;7.134;2022-12-26T15:15:46;3.53;;;3.23;;
20142;SDS011;10509;46.476;7.134;2022-12-26T15:18:45;12.03;;;11.17;;
20142;SDS011;10509;46.476;7.134;2022-12-26T15:31:31;14.07;;;12.77;;
20142;SDS011;10509;46.476;7.134;2022-12-26T15:39:32;2.83;;;2.30;;
20142;SDS011;10509;46.476;7.134;2022-12-26T15:42:11;3.70;;;3.40;;
20142;SDS011;10509;46.476;7.134;2022-12-26T15:49:42;1.77;;;1.37;;
20142;SDS011;10509;46.476;7.134;2022-12-26T15:57:18;1.80;;;1.40;;
20142;SDS011;10509;46.476;7.134;2022-12-26T16:07:44;2.67;;;1.90;;
20142;SDS011;10509;46.476;7.134;2022-12-26T16:10:26;2.63;;;1.40;;
20142;SDS011;10509;46.476;7.134;2022-12-26T16:12:56;3.33;;;3.10;;
20142;SDS011;10509;46.476;7.134;2022-12-26T16:15:23;2.80;;;2.60;;
20142;SDS011;10509;46.476;7.134;2022-12-26T16:17:49;1.80;;;1.70;;
20142;SDS011;10509;46.476;7.134;2022-12-26T16:23:10;2.30;;;2.10;;
20142;SDS011;10509;46.476;7.134;2022-12-26T16:25:37;3.07;;;2.83;;
20142;SDS011;10509;46.476;7.134;2022-12-26T16:28:03;3.03;;;2.73;;
20142;SDS011;10509;46.476;7.134;2022-12-26T16:30:31;2.17;;;1.97;;
20142;SDS011;10509;46.476;7.134;2022-12-26T16:32:58;2.87;;;2.33;;
20142;SDS011;10509;46.476;7.134;2022-12-26T16:35:28;2.70;;;2.20;;
20142;SDS011;10509;46.476;7.134;2022-12-26T16:37:55;8.23;;;5.07;;
20142;SDS011;10509;46.476;7.134;2022-12-26T16:40:27;2.63;;;2.40;;
20142;SDS011;10509;46.476;7.134;2022-12-26T16:42:55;7.40;;;6.77;;
20142;SDS011;10509;46.476;7.134;2022-12-26T16:45:21;3.60;;;3.30;;
20142;SDS011;10509;46.476;7.134;2022-12-26T16:47:47;3.63;;;3.33;;
20142;SDS011;10509;46.476;7.134;2022-12-26T16:50:24;2.00;;;1.80;;
20142;SDS011;10509;46.476;7.134;2022-12-26T16:53:10;2.13;;;1.93;;
20142;SDS011;10509;46.476;7.134;2022-12-26T16:55:38;1.40;;;1.10;;
20142;SDS011;10509;46.476;7.134;2022-12-26T16:58:13;1.60;;;1.00;;
20142;SDS011;10509;46.476;7.134;2022-12-26T17:00:44;0.80;;;0.80;;
20142;SDS011;10509;46.476;7.134;2022-12-26T17:03:14;0.80;;;0.80;;
20142;SDS011;10509;46.476;7.134;2022-12-26T17:05:45;0.60;;;0.50;;
20142;SDS011;10509;46.476;7.134;2022-12-26T17:08:12;0.80;;;0.70;;
20142;SDS011;10509;46.476;7.134;2022-12-26T17:10:39;1.10;;;0.80;;
20142;SDS011;10509;46.476;7.134;2022-12-26T17:13:13;1.27;;;0.70;;
20142;SDS011;10509;46.476;7.134;2022-12-26T17:15:48;0.60;;;0.40;;
20142;SDS011;10509;46.476;7.134;2022-12-26T17:23:43;0.37;;;0.30;;
20142;SDS011;10509;46.476;7.134;2022-12-26T17:26:15;1.03;;;0.50;;
20142;SDS011;10509;46.476;7.134;2022-12-26T17:28:41;0.40;;;0.40;;
20142;SDS011;10509;46.476;7.134;2022-12-26T17:31:20;0.80;;;0.40;;
20142;SDS011;10509;46.476;7.134;2022-12-26T17:33:48;2.53;;;1.30;;
20142;SDS011;10509;46.476;7.134;2022-12-26T17:36:14;0.70;;;0.40;;
20142;SDS011;10509;46.476;7.134;2022-12-26T17:38:41;0.33;;;0.30;;
20142;SDS011;10509;46.476;7.134;2022-12-26T17:41:08;0.60;;;0.40;;
20142;SDS011;10509;46.476;7.134;2022-12-26T17:43:38;0.37;;;0.37;;
20142;SDS011;10509;46.476;7.134;2022-12-26T17:46:05;0.40;;;0.30;;
20142;SDS011;10509;46.476;7.134;2022-12-26T17:48:32;0.20;;;0.20;;
20142;SDS011;10509;46.476;7.134;2022-12-26T17:50:59;0.63;;;0.30;;
20142;SDS011;10509;46.476;7.134;2022-12-26T17:53:35;0.60;;;0.30;;
20142;SDS011;10509;46.476;7.134;2022-12-26T17:56:03;0.20;;;0.20;;
20142;SDS011;10509;46.476;7.134;2022-12-26T17:58:29;1.30;;;0.20;;
20142;SDS011;10509;46.476;7.134;2022-12-26T18:00:55;0.67;;;0.30;;
20142;SDS011;10509;46.476;7.134;2022-12-26T18:03:22;0.20;;;0.20;;
20142;SDS011;10509;46.476;7.134;2022-12-26T18:05:48;0.20;;;0.20;;
20142;SDS011;10509;46.476;7.134;2022-12-26T18:08:25;0.20;;;0.20;;
20142;SDS011;10509;46.476;7.134;2022-12-26T18:10:52;0.30;;;0.20;;
20142;SDS011;10509;46.476;7.134;2022-12-26T18:13:18;0.20;;;0.20;;
20142;SDS011;10509;46.476;7.134;2022-12-26T18:15:45;0.20;;;0.20;;
20142;SDS011;10509;46.476;7.134;2022-12-26T18:21:11;0.20;;;0.10;;
20142;SDS011;10509;46.476;7.134;2022-12-26T18:23:37;0.40;;;0.23;;
20142;SDS011;10509;46.476;7.134;2022-12-26T18:26:05;0.37;;;0.20;;
20142;SDS011;10509;46.476;7.134;2022-12-26T18:28:32;0.20;;;0.20;;
20142;SDS011;10509;46.476;7.134;2022-12-26T18:30:58;0.30;;;0.30;;
20142;SDS011;10509;46.476;7.134;2022-12-26T18:33:24;6.43;;;5.93;;
20142;SDS011;10509;46.476;7.134;2022-12-26T18:35:50;4.27;;;3.93;;
20142;SDS011;10509;46.476;7.134;2022-12-26T18:38:17;1.10;;;0.70;;
20142;SDS011;10509;46.476;7.134;2022-12-26T18:40:44;2.03;;;0.80;;